createdAt,value
2018-09-04T00:00:15.851Z,42.90
2018-09-04T00:06:20.915Z,45.27
2018-09-04T00:12:26.257Z,52.37
2018-09-04T00:18:30.934Z,45.67
2018-09-04T00:24:35.808Z,49.37
2018-09-04T00:30:41.765Z,41.33
2018-09-04T00:36:47.407Z,45.60
2018-09-04T00:42:52.196Z,52.10
2018-09-04T00:48:57.145Z,47.17
2018-09-04T00:55:01.967Z,47.70
2018-09-04T01:01:06.705Z,50.43
2018-09-04T01:07:11.823Z,50.17
2018-09-04T01:13:16.784Z,52.83
2018-09-04T01:19:21.509Z,46.43
2018-09-04T01:25:26.388Z,46.20
2018-09-04T01:31:31.225Z,49.20
2018-09-04T01:37:36.063Z,50.30
2018-09-04T01:43:41.998Z,51.37
2018-09-04T01:49:47.029Z,51.83
2018-09-04T01:55:52.015Z,50.40
2018-09-04T02:01:57.171Z,56.97
2018-09-04T02:08:02.057Z,49.73
2018-09-04T02:14:07.096Z,50.53
2018-09-04T02:20:12.046Z,56.13
2018-09-04T02:26:16.980Z,57.20
2018-09-04T02:32:21.936Z,64.17
2018-09-04T02:38:27.769Z,50.87
2018-09-04T02:44:32.940Z,52.17
2018-09-04T02:50:37.768Z,64.20
2018-09-04T02:56:47.852Z,55.63
2018-09-04T03:02:52.770Z,50.70
2018-09-04T03:08:57.652Z,49.27
2018-09-04T03:15:02.518Z,50.17
2018-09-04T03:21:07.438Z,52.73
2018-09-04T03:27:12.479Z,58.80
2018-09-04T03:33:17.274Z,63.67
2018-09-04T03:39:22.077Z,61.03
2018-09-04T03:45:27.194Z,59.33
2018-09-04T03:51:31.946Z,78.10
2018-09-04T03:57:37.215Z,60.10
2018-09-04T04:03:44.108Z,61.27
2018-09-04T04:09:49.230Z,68.37
2018-09-04T04:15:53.959Z,69.60
2018-09-04T04:21:58.862Z,64.53
2018-09-04T04:28:03.657Z,61.00
2018-09-04T04:34:09.876Z,63.83
2018-09-04T04:40:15.520Z,65.70
2018-09-04T04:46:20.325Z,72.57
2018-09-04T04:52:25.276Z,63.63
2018-09-04T04:58:30.017Z,59.50
2018-09-04T05:04:34.816Z,67.37
2018-09-04T05:10:40.815Z,69.70
2018-09-04T05:16:46.263Z,55.17
2018-09-04T05:22:51.220Z,63.17
2018-09-04T05:28:56.089Z,67.57
2018-09-04T05:35:01.112Z,82.97
2018-09-04T05:41:05.986Z,55.67
2018-09-04T05:47:10.967Z,51.43
2018-09-04T05:53:16.363Z,53.73
2018-09-04T05:59:21.554Z,57.23
2018-09-04T06:05:26.523Z,54.53
2018-09-04T06:11:31.313Z,61.40
2018-09-04T06:17:36.092Z,52.83
2018-09-04T06:23:41.758Z,49.43
2018-09-04T06:29:47.000Z,55.80
2018-09-04T06:35:52.071Z,53.93
2018-09-04T06:41:56.886Z,50.50
2018-09-04T06:48:01.901Z,46.40
2018-09-04T06:54:06.969Z,36.07
2018-09-04T07:00:15.078Z,36.67
2018-09-04T07:06:20.301Z,33.73
2018-09-04T07:12:25.097Z,39.23
2018-09-04T07:18:29.945Z,37.47
2018-09-04T07:24:34.808Z,41.33
2018-09-04T07:30:39.841Z,41.53
2018-09-04T07:36:46.235Z,38.50
2018-09-04T07:42:51.080Z,43.00
2018-09-04T07:48:55.855Z,42.00
2018-09-04T07:55:00.630Z,43.33
2018-09-04T08:01:06.354Z,34.27
2018-09-04T08:07:11.217Z,42.00
2018-09-04T08:13:16.454Z,40.40
2018-09-04T08:19:21.466Z,36.13
2018-09-04T08:25:26.979Z,35.43
2018-09-04T08:31:31.720Z,36.20
2018-09-04T08:37:36.710Z,30.47
2018-09-04T08:43:41.482Z,35.17
2018-09-04T08:49:46.725Z,41.77
2018-09-04T08:55:51.645Z,26.50
2018-09-04T09:01:56.545Z,30.80
2018-09-04T09:08:01.370Z,29.40
2018-09-04T09:14:06.423Z,26.57
2018-09-04T09:20:12.173Z,28.57
2018-09-04T09:26:17.020Z,22.50
2018-09-04T09:32:21.788Z,21.07
2018-09-04T09:38:26.699Z,23.00
2018-09-04T09:44:31.826Z,23.77
2018-09-04T09:50:36.771Z,22.50
2018-09-04T09:56:41.921Z,23.73
2018-09-04T10:02:51.988Z,22.30
2018-09-04T10:08:56.798Z,18.10
2018-09-04T10:15:01.511Z,19.17
2018-09-04T10:21:06.941Z,16.30
2018-09-04T10:27:12.441Z,18.97
2018-09-04T10:33:17.445Z,18.23
2018-09-04T10:39:27.477Z,20.30
2018-09-04T10:45:37.384Z,14.97
2018-09-04T10:51:43.309Z,19.10
2018-09-04T10:57:48.399Z,16.53
2018-09-04T11:03:53.250Z,16.30
2018-09-04T11:09:58.222Z,14.27
2018-09-04T11:16:03.139Z,20.83
2018-09-04T11:22:07.916Z,12.73
2018-09-04T11:28:14.051Z,14.43
2018-09-04T11:34:18.955Z,19.93
2018-09-04T11:40:24.017Z,15.70
2018-09-04T11:46:28.772Z,13.27
2018-09-04T11:52:33.801Z,12.70
2018-09-04T11:58:38.886Z,16.40
2018-09-04T12:04:45.098Z,13.23
2018-09-04T12:10:50.016Z,14.73
2018-09-04T12:16:54.792Z,12.40
2018-09-04T12:22:59.843Z,13.00
2018-09-04T12:29:05.072Z,11.40
2018-09-04T12:35:10.675Z,13.07
2018-09-04T12:41:17.019Z,10.70
2018-09-04T12:47:21.766Z,11.80
2018-09-04T12:53:27.488Z,15.00
2018-09-04T12:59:32.211Z,13.03
2018-09-04T13:05:37.415Z,11.27
2018-09-04T13:11:44.871Z,9.10
2018-09-04T13:17:49.641Z,13.93
2018-09-04T13:23:54.406Z,10.40
2018-09-04T13:29:59.437Z,9.47
2018-09-04T13:36:04.126Z,9.00
2018-09-04T13:42:09.372Z,8.00
2018-09-04T13:48:14.571Z,9.43
2018-09-04T13:54:19.577Z,7.93
2018-09-04T14:00:25.598Z,9.43
2018-09-04T14:06:30.488Z,11.10
2018-09-04T14:12:35.217Z,8.70
2018-09-04T14:18:40.368Z,8.60
2018-09-04T14:24:45.799Z,8.57
2018-09-04T14:30:50.763Z,10.07
2018-09-04T14:36:55.608Z,9.10
2018-09-04T14:43:00.416Z,11.27
2018-09-04T14:49:05.689Z,7.10
2018-09-04T14:55:11.660Z,8.00
2018-09-04T15:01:16.347Z,8.93
2018-09-04T15:07:21.061Z,8.93
2018-09-04T15:13:25.937Z,19.57
2018-09-04T15:19:31.108Z,11.30
2018-09-04T15:25:36.029Z,9.53
2018-09-04T15:31:41.421Z,8.90
2018-09-04T15:37:46.215Z,11.23
2018-09-04T15:43:51.140Z,9.00
2018-09-04T15:49:55.979Z,8.30
2018-09-04T15:56:00.748Z,9.23
2018-09-04T16:02:05.942Z,13.00
2018-09-04T16:08:11.311Z,18.97
2018-09-04T16:14:16.384Z,11.40
2018-09-04T16:20:21.264Z,8.43
2018-09-04T16:26:26.049Z,8.30
2018-09-04T16:32:30.955Z,10.40
2018-09-04T16:38:35.739Z,9.07
2018-09-04T16:44:41.700Z,12.60
2018-09-04T16:50:46.858Z,11.17
2018-09-04T16:56:52.281Z,11.20
2018-09-04T17:02:57.056Z,9.43
2018-09-04T17:09:01.735Z,13.43
2018-09-04T17:15:06.685Z,10.80
2018-09-04T17:21:11.746Z,11.90
2018-09-04T17:27:16.761Z,10.83
2018-09-04T17:33:21.890Z,10.17
2018-09-04T17:39:26.738Z,11.13
2018-09-04T17:45:31.535Z,10.80
2018-09-04T17:51:36.498Z,11.20
2018-09-04T17:57:41.349Z,9.70
2018-09-04T18:03:46.273Z,11.10
2018-09-04T18:09:50.990Z,13.93
2018-09-04T18:15:55.923Z,13.13
2018-09-04T18:22:00.744Z,9.47
2018-09-04T18:28:05.537Z,10.00
2018-09-04T18:34:11.719Z,14.80
2018-09-04T18:40:16.726Z,20.47
2018-09-04T18:47:06.941Z,8.87
2018-09-04T18:53:12.919Z,14.00
2018-09-04T18:59:17.863Z,10.40
2018-09-04T19:05:22.707Z,10.33
2018-09-04T19:11:27.488Z,11.00
2018-09-04T19:17:32.360Z,10.80
2018-09-04T19:23:37.244Z,8.73
2018-09-04T19:29:42.236Z,13.23
2018-09-04T19:35:47.215Z,11.10
2018-09-04T19:41:52.218Z,11.60
2018-09-04T19:47:57.380Z,10.60
2018-09-04T19:54:02.182Z,10.43
2018-09-04T20:00:07.977Z,11.47
2018-09-04T20:06:13.686Z,8.60
2018-09-04T20:12:18.697Z,9.00
2018-09-04T20:18:23.441Z,9.33
2018-09-04T20:24:28.467Z,9.47
2018-09-04T20:30:33.515Z,12.90
2018-09-04T20:36:38.719Z,8.80
2018-09-04T20:42:44.327Z,8.83
2018-09-04T20:48:49.960Z,13.60
2018-09-04T20:54:54.817Z,9.47
2018-09-04T21:01:16.247Z,8.57
2018-09-04T21:07:24.404Z,7.80
2018-09-04T21:13:29.162Z,8.40
2018-09-04T21:19:34.358Z,7.67
2018-09-04T21:25:39.254Z,8.80
2018-09-04T21:31:44.854Z,8.03
2018-09-04T21:37:49.494Z,9.80
2018-09-04T21:43:54.398Z,6.83
2018-09-04T21:49:59.465Z,10.03
2018-09-04T21:56:05.055Z,10.20
2018-09-04T22:02:10.344Z,11.43
2018-09-04T22:08:15.812Z,9.93
2018-09-04T22:14:21.022Z,6.70
2018-09-04T22:20:26.545Z,11.30
2018-09-04T22:26:31.374Z,8.60
2018-09-04T22:32:36.361Z,10.90
2018-09-04T22:38:42.196Z,8.50
2018-09-04T22:44:46.910Z,9.40
2018-09-04T22:50:56.877Z,13.30
2018-09-04T22:57:01.906Z,23.00
2018-09-04T23:03:06.884Z,9.47
2018-09-04T23:09:12.606Z,9.23
2018-09-04T23:15:17.367Z,9.37
2018-09-04T23:21:22.116Z,8.70
2018-09-04T23:27:27.172Z,10.00
2018-09-04T23:33:33.239Z,8.90
2018-09-04T23:39:39.992Z,10.70
2018-09-04T23:45:45.482Z,12.90
2018-09-04T23:51:50.290Z,11.10
2018-09-04T23:57:55.260Z,10.93
